createdAt,value
2022-10-09T00:01:31.807Z,9.90
2022-10-09T00:03:59.578Z,5.20
2022-10-09T00:06:29.135Z,10.80
2022-10-09T00:08:56.418Z,5.70
2022-10-09T00:11:25.276Z,8.50
2022-10-09T00:13:53.272Z,8.30
2022-10-09T00:16:21.080Z,4.60
2022-10-09T00:18:48.457Z,6.30
2022-10-09T00:21:26.771Z,8.30
2022-10-09T00:23:55.192Z,6.80
2022-10-09T00:26:22.428Z,7.70
2022-10-09T00:28:49.492Z,10.40
2022-10-09T00:31:16.731Z,5.80
2022-10-09T00:33:43.852Z,6.50
2022-10-09T00:36:29.068Z,12.30
2022-10-09T00:38:56.075Z,5.70
2022-10-09T00:41:28.985Z,11.60
2022-10-09T00:44:04.346Z,5.40
2022-10-09T00:46:40.250Z,9.60
2022-10-09T00:49:22.683Z,18.20
2022-10-09T00:51:50.114Z,9.10
2022-10-09T00:54:18.548Z,8.50
2022-10-09T00:56:45.646Z,13.70
2022-10-09T00:59:12.962Z,15.90
2022-10-09T01:01:41.874Z,6.40
2022-10-09T01:04:09.036Z,8.70
2022-10-09T01:06:57.514Z,7.80
2022-10-09T01:09:35.907Z,8.80
2022-10-09T01:12:19.534Z,8.80
2022-10-09T01:15:18.509Z,6.20
2022-10-09T01:18:07.904Z,9.00
2022-10-09T01:20:42.432Z,13.60
2022-10-09T01:23:17.254Z,12.10
2022-10-09T01:25:56.800Z,10.90
2022-10-09T01:28:24.605Z,7.70
2022-10-09T01:30:51.883Z,5.30
2022-10-09T01:33:19.005Z,10.10
2022-10-09T01:35:46.236Z,12.80
2022-10-09T01:38:13.136Z,7.40
2022-10-09T01:40:40.109Z,9.30
2022-10-09T01:43:07.154Z,5.10
2022-10-09T01:45:42.364Z,8.90
2022-10-09T01:48:13.112Z,4.10
2022-10-09T01:50:43.169Z,15.50
2022-10-09T01:53:12.837Z,5.70
2022-10-09T01:55:49.959Z,7.00
2022-10-09T01:58:27.243Z,10.80
2022-10-09T02:01:19.328Z,4.40
2022-10-09T02:03:48.399Z,5.30
2022-10-09T02:06:16.324Z,6.70
2022-10-09T02:08:44.757Z,6.80
2022-10-09T02:11:12.566Z,7.30
2022-10-09T02:13:39.503Z,4.40
2022-10-09T02:16:20.937Z,6.00
2022-10-09T02:19:04.521Z,9.80
2022-10-09T02:21:48.658Z,6.20
2022-10-09T02:24:19.716Z,4.50
2022-10-09T02:26:46.678Z,6.80
2022-10-09T02:29:13.941Z,4.90
2022-10-09T02:31:42.028Z,5.10
2022-10-09T02:34:12.031Z,4.40
2022-10-09T02:36:39.351Z,6.20
2022-10-09T02:39:06.462Z,5.50
2022-10-09T02:41:33.656Z,5.40
2022-10-09T02:44:00.664Z,7.10
2022-10-09T02:46:27.807Z,4.30
2022-10-09T02:48:54.776Z,6.50
2022-10-09T02:51:21.990Z,5.20
2022-10-09T02:53:48.890Z,4.10
2022-10-09T02:56:15.866Z,5.40
2022-10-09T02:58:43.183Z,9.30
2022-10-09T03:01:10.237Z,4.20
2022-10-09T03:03:37.291Z,5.50
2022-10-09T03:06:04.636Z,6.10
2022-10-09T03:08:31.710Z,5.10
2022-10-09T03:10:58.728Z,3.40
2022-10-09T03:13:25.748Z,3.00
2022-10-09T03:15:52.754Z,3.80
2022-10-09T03:18:19.765Z,4.70
2022-10-09T03:20:46.761Z,5.50
2022-10-09T03:23:13.865Z,9.10
2022-10-09T03:25:40.790Z,3.70
2022-10-09T03:28:07.796Z,7.30
2022-10-09T03:30:34.901Z,4.60
2022-10-09T03:33:01.859Z,6.90
2022-10-09T03:35:28.790Z,5.10
2022-10-09T03:37:55.786Z,3.70
2022-10-09T03:40:22.688Z,4.50
2022-10-09T03:42:49.954Z,5.00
2022-10-09T03:45:17.287Z,8.00
2022-10-09T03:47:44.334Z,6.80
2022-10-09T03:50:11.403Z,6.70
2022-10-09T03:52:38.430Z,3.80
2022-10-09T03:55:06.191Z,8.00
2022-10-09T03:57:33.856Z,5.70
2022-10-09T04:00:00.991Z,3.80
2022-10-09T04:02:27.995Z,5.00
2022-10-09T04:04:54.922Z,5.00
2022-10-09T04:07:21.843Z,3.50
2022-10-09T04:09:48.801Z,4.30
2022-10-09T04:12:15.831Z,5.90
2022-10-09T04:14:42.786Z,11.90
2022-10-09T04:17:09.837Z,5.60
2022-10-09T04:19:36.997Z,4.60
2022-10-09T04:22:04.026Z,3.70
2022-10-09T04:24:31.066Z,4.00
2022-10-09T04:26:58.123Z,5.50
2022-10-09T04:29:25.454Z,5.10
2022-10-09T04:31:53.046Z,5.70
2022-10-09T04:34:20.100Z,6.90
2022-10-09T04:36:47.060Z,6.60
2022-10-09T04:39:14.065Z,6.20
2022-10-09T04:41:41.224Z,6.20
2022-10-09T04:44:08.218Z,6.30
2022-10-09T04:46:35.179Z,5.10
2022-10-09T04:49:02.055Z,4.20
2022-10-09T04:51:28.935Z,6.10
2022-10-09T04:54:00.432Z,4.50
2022-10-09T04:56:27.926Z,7.60
2022-10-09T04:58:54.852Z,4.90
2022-10-09T05:01:23.455Z,4.70
2022-10-09T05:03:50.817Z,5.30
2022-10-09T05:06:18.635Z,3.90
2022-10-09T05:08:45.754Z,3.80
2022-10-09T05:11:18.238Z,7.70
2022-10-09T05:13:47.502Z,5.80
2022-10-09T05:16:16.944Z,4.30
2022-10-09T05:18:44.863Z,7.70
2022-10-09T05:21:11.994Z,5.50
2022-10-09T05:23:38.944Z,5.30
2022-10-09T05:26:12.343Z,6.20
2022-10-09T05:28:39.420Z,8.20
2022-10-09T05:31:07.174Z,4.60
2022-10-09T05:33:34.499Z,4.60
2022-10-09T05:36:03.007Z,5.20
2022-10-09T05:38:30.438Z,6.10
2022-10-09T05:40:59.384Z,6.10
2022-10-09T05:43:27.706Z,5.80
2022-10-09T05:45:55.077Z,7.00
2022-10-09T05:48:22.246Z,10.00
2022-10-09T05:50:49.259Z,5.60
2022-10-09T05:53:16.199Z,5.00
2022-10-09T05:55:43.151Z,6.20
2022-10-09T05:58:10.092Z,7.70
2022-10-09T06:00:37.270Z,10.00
2022-10-09T06:03:04.405Z,7.30
2022-10-09T06:05:31.399Z,9.20
2022-10-09T06:07:58.488Z,5.70
2022-10-09T06:10:28.013Z,9.90
2022-10-09T06:12:58.575Z,8.20
2022-10-09T06:15:25.568Z,9.10
2022-10-09T06:17:52.484Z,10.80
2022-10-09T06:20:19.316Z,9.60
2022-10-09T06:22:46.381Z,14.70
2022-10-09T06:25:13.502Z,12.50
2022-10-09T06:27:40.402Z,9.20
2022-10-09T06:30:08.303Z,9.40
2022-10-09T06:32:35.233Z,13.50
2022-10-09T06:35:02.256Z,11.80
2022-10-09T06:37:29.223Z,14.90
2022-10-09T06:39:56.252Z,16.20
2022-10-09T06:42:23.605Z,13.40
2022-10-09T06:44:51.465Z,11.50
2022-10-09T06:47:18.614Z,11.60
2022-10-09T06:49:45.664Z,14.60
2022-10-09T06:52:12.712Z,11.00
2022-10-09T06:54:39.570Z,11.20
2022-10-09T06:57:06.507Z,14.70
2022-10-09T06:59:33.516Z,14.40
2022-10-09T07:02:00.619Z,11.50
2022-10-09T07:04:27.849Z,15.20
2022-10-09T07:06:54.915Z,19.30
2022-10-09T07:09:21.940Z,15.60
2022-10-09T07:11:49.593Z,21.90
2022-10-09T07:14:16.792Z,17.20
2022-10-09T07:16:45.752Z,14.50
2022-10-09T07:19:13.226Z,19.20
2022-10-09T07:21:41.748Z,16.60
2022-10-09T07:24:08.846Z,14.50
2022-10-09T07:26:37.316Z,17.60
2022-10-09T07:29:05.394Z,14.80
2022-10-09T07:31:32.440Z,16.40
2022-10-09T07:33:59.686Z,15.60
2022-10-09T07:36:26.942Z,18.60
2022-10-09T07:38:57.818Z,18.60
2022-10-09T07:41:26.195Z,17.10
2022-10-09T07:43:53.133Z,17.20
2022-10-09T07:46:22.141Z,14.80
2022-10-09T07:48:49.347Z,18.00
2022-10-09T07:51:21.872Z,22.10
2022-10-09T07:53:48.962Z,22.30
2022-10-09T07:56:23.797Z,17.00
2022-10-09T07:58:52.071Z,16.60
2022-10-09T08:01:20.503Z,18.20
2022-10-09T08:03:48.314Z,16.90
2022-10-09T08:06:16.007Z,17.00
2022-10-09T08:08:43.125Z,18.80
2022-10-09T08:11:14.778Z,16.90
2022-10-09T08:13:42.071Z,17.00
2022-10-09T08:16:09.294Z,18.30
2022-10-09T08:18:37.009Z,18.20
2022-10-09T08:21:14.952Z,17.60
2022-10-09T08:23:42.027Z,19.30
2022-10-09T08:26:17.241Z,14.20
2022-10-09T08:28:44.736Z,14.80
2022-10-09T08:31:13.162Z,25.10
2022-10-09T08:33:40.273Z,19.60
2022-10-09T08:36:08.691Z,21.40
2022-10-09T08:38:51.424Z,16.80
2022-10-09T08:41:27.797Z,16.40
2022-10-09T08:44:01.788Z,18.10
2022-10-09T08:46:32.848Z,16.50
2022-10-09T08:48:59.901Z,16.50
2022-10-09T08:51:28.226Z,21.30
2022-10-09T08:53:59.148Z,15.70
2022-10-09T08:56:26.182Z,15.10
2022-10-09T08:58:53.326Z,17.80
2022-10-09T09:01:31.604Z,15.50
2022-10-09T09:04:23.847Z,12.90
2022-10-09T09:07:18.745Z,13.40
2022-10-09T09:10:13.951Z,12.80
2022-10-09T09:12:55.954Z,12.30
2022-10-09T09:15:30.041Z,11.30
2022-10-09T09:17:56.911Z,14.30
2022-10-09T09:20:27.955Z,15.00
2022-10-09T09:22:55.100Z,14.50
2022-10-09T09:25:24.449Z,13.60
2022-10-09T09:27:52.879Z,9.60
2022-10-09T09:30:23.765Z,11.10
2022-10-09T09:33:18.970Z,13.30
2022-10-09T09:35:52.050Z,12.80
2022-10-09T09:38:19.000Z,11.20
2022-10-09T09:40:47.173Z,13.00
2022-10-09T09:43:22.585Z,11.80
2022-10-09T09:45:57.653Z,9.70
2022-10-09T09:48:46.054Z,14.90
2022-10-09T09:51:33.143Z,10.70
2022-10-09T09:54:22.115Z,13.20
2022-10-09T09:59:38.178Z,8.50
2022-10-09T10:02:17.615Z,10.70
2022-10-09T10:04:57.769Z,10.90
2022-10-09T10:07:43.014Z,15.20
2022-10-09T10:10:09.898Z,11.80
2022-10-09T10:12:44.220Z,11.20
2022-10-09T10:15:25.968Z,11.20
2022-10-09T10:17:59.158Z,9.80
2022-10-09T10:20:26.973Z,7.90
2022-10-09T10:22:55.814Z,9.20
2022-10-09T10:25:31.789Z,7.50
2022-10-09T10:28:02.766Z,6.10
2022-10-09T10:30:29.963Z,8.00
2022-10-09T10:33:02.945Z,10.50
2022-10-09T10:35:40.744Z,13.20
2022-10-09T10:38:13.233Z,8.10
2022-10-09T10:40:44.597Z,11.10
2022-10-09T10:44:07.897Z,10.10
2022-10-09T10:46:39.215Z,11.50
2022-10-09T10:49:07.876Z,7.30
2022-10-09T10:51:58.063Z,11.20
2022-10-09T10:54:34.327Z,10.70
2022-10-09T10:57:27.479Z,12.30
2022-10-09T11:00:05.629Z,10.20
2022-10-09T11:03:03.504Z,12.50
2022-10-09T11:05:46.940Z,11.40
2022-10-09T11:08:35.677Z,10.40
2022-10-09T11:11:33.715Z,12.50
2022-10-09T11:14:25.884Z,8.70
2022-10-09T11:16:55.687Z,8.40
2022-10-09T11:19:25.475Z,12.00
2022-10-09T11:22:14.555Z,9.20
2022-10-09T11:25:10.046Z,9.80
2022-10-09T11:28:18.936Z,12.50
2022-10-09T11:30:59.982Z,10.80
2022-10-09T11:33:51.173Z,12.10
2022-10-09T11:36:39.837Z,10.50
2022-10-09T11:39:13.141Z,10.80
2022-10-09T11:41:40.082Z,13.30
2022-10-09T11:44:29.173Z,11.50
2022-10-09T11:47:14.512Z,10.70
2022-10-09T11:49:47.703Z,8.40
2022-10-09T11:52:23.987Z,8.30
2022-10-09T11:54:51.020Z,9.50
2022-10-09T11:57:27.472Z,8.30
2022-10-09T12:00:04.915Z,8.60
2022-10-09T12:02:32.153Z,6.60
2022-10-09T12:04:59.501Z,7.80
2022-10-09T12:07:30.965Z,13.90
2022-10-09T12:10:08.590Z,6.10
2022-10-09T12:12:37.935Z,10.00
2022-10-09T12:15:37.433Z,9.30
2022-10-09T12:18:17.489Z,6.80
2022-10-09T12:20:45.918Z,9.00
2022-10-09T12:23:28.463Z,6.60
2022-10-09T12:25:55.938Z,15.20
2022-10-09T12:28:29.367Z,6.70
2022-10-09T12:30:58.361Z,6.20
2022-10-09T12:33:48.509Z,6.20
2022-10-09T12:36:22.089Z,2.60
2022-10-09T12:38:49.163Z,4.10
2022-10-09T12:41:27.977Z,2.90
2022-10-09T12:43:56.054Z,2.30
2022-10-09T12:46:30.602Z,5.30
2022-10-09T12:48:58.190Z,3.10
2022-10-09T12:51:27.146Z,3.00
2022-10-09T12:53:54.922Z,4.00
2022-10-09T12:56:24.830Z,2.30
2022-10-09T12:58:51.755Z,4.00
2022-10-09T13:01:19.027Z,4.50
2022-10-09T13:03:54.861Z,5.20
2022-10-09T13:06:24.470Z,2.70
2022-10-09T13:08:52.868Z,3.30
2022-10-09T13:11:22.407Z,3.00
2022-10-09T13:13:50.912Z,5.50
2022-10-09T13:16:18.042Z,2.70
2022-10-09T13:19:04.135Z,4.20
2022-10-09T13:21:35.242Z,4.30
2022-10-09T13:24:13.422Z,2.20
2022-10-09T13:26:41.485Z,5.40
2022-10-09T13:29:08.784Z,1.70
2022-10-09T13:31:37.234Z,2.30
2022-10-09T13:34:12.312Z,2.30
2022-10-09T13:36:39.322Z,3.30
2022-10-09T13:39:06.472Z,2.90
2022-10-09T13:41:34.031Z,3.30
2022-10-09T13:44:01.071Z,2.50
2022-10-09T13:46:28.067Z,3.10
2022-10-09T13:48:55.099Z,4.50
2022-10-09T13:51:22.112Z,3.40
2022-10-09T13:53:50.035Z,3.10
2022-10-09T13:56:17.340Z,3.50
2022-10-09T13:58:44.330Z,3.00
2022-10-09T14:01:11.380Z,4.40
2022-10-09T14:03:38.781Z,3.30
2022-10-09T14:06:06.716Z,3.60
2022-10-09T14:08:33.611Z,3.20
2022-10-09T14:11:01.054Z,2.70
2022-10-09T14:13:28.923Z,2.80
2022-10-09T14:15:56.056Z,2.50
2022-10-09T14:18:23.114Z,2.70
2022-10-09T14:20:50.163Z,2.40
2022-10-09T14:23:17.073Z,3.40
2022-10-09T14:25:44.155Z,2.80
2022-10-09T14:28:11.241Z,6.40
2022-10-09T14:30:42.271Z,3.60
2022-10-09T14:33:09.530Z,5.50
2022-10-09T14:35:36.588Z,3.90
2022-10-09T14:38:03.906Z,5.70
2022-10-09T14:40:31.454Z,5.30
2022-10-09T14:42:58.606Z,4.40
2022-10-09T14:45:25.755Z,4.00
2022-10-09T14:47:52.660Z,5.20
2022-10-09T14:50:19.610Z,3.10
2022-10-09T14:52:46.677Z,3.40
2022-10-09T14:55:15.400Z,4.20
2022-10-09T14:57:43.756Z,3.10
2022-10-09T15:00:11.650Z,6.00
2022-10-09T15:02:38.911Z,6.10
2022-10-09T15:05:06.119Z,2.80
2022-10-09T15:07:33.994Z,3.90
2022-10-09T15:10:00.944Z,3.90
2022-10-09T15:12:27.946Z,4.30
2022-10-09T15:14:54.932Z,7.30
2022-10-09T15:17:22.061Z,6.20
2022-10-09T15:19:49.131Z,3.90
2022-10-09T15:22:16.074Z,3.30
2022-10-09T15:24:43.056Z,3.10
2022-10-09T15:27:09.974Z,2.70
2022-10-09T15:29:37.059Z,3.50
2022-10-09T15:32:04.061Z,4.50
2022-10-09T15:34:31.206Z,6.40
2022-10-09T15:36:58.280Z,4.50
2022-10-09T15:39:25.341Z,4.20
2022-10-09T15:41:52.350Z,3.00
2022-10-09T15:44:20.572Z,3.40
2022-10-09T15:46:48.206Z,2.20
2022-10-09T15:49:15.235Z,3.40
2022-10-09T15:51:42.216Z,2.40
2022-10-09T15:54:10.444Z,4.60
2022-10-09T15:56:39.971Z,2.70
2022-10-09T15:59:07.620Z,6.70
2022-10-09T16:01:34.668Z,3.20
2022-10-09T16:04:01.922Z,4.90
2022-10-09T16:06:29.217Z,4.10
2022-10-09T16:08:57.608Z,7.40
2022-10-09T16:11:26.441Z,1.50
2022-10-09T16:13:54.676Z,2.30
2022-10-09T16:16:23.511Z,2.50
2022-10-09T16:18:51.222Z,3.20
2022-10-09T16:21:20.234Z,2.60
2022-10-09T16:23:47.720Z,1.20
2022-10-09T16:26:17.990Z,5.40
2022-10-09T16:28:45.994Z,3.10
2022-10-09T16:31:26.691Z,3.50
2022-10-09T16:33:53.826Z,1.80
2022-10-09T16:36:21.004Z,4.90
2022-10-09T16:38:48.229Z,1.90
2022-10-09T16:41:18.102Z,1.90
2022-10-09T16:43:46.135Z,3.60
2022-10-09T16:46:20.440Z,2.00
2022-10-09T16:48:48.398Z,3.70
2022-10-09T16:51:18.068Z,1.70
2022-10-09T16:53:45.363Z,1.00
2022-10-09T16:56:16.708Z,2.40
2022-10-09T16:58:43.985Z,1.80
2022-10-09T17:01:11.208Z,4.70
2022-10-09T17:03:42.218Z,2.10
2022-10-09T17:06:16.394Z,2.70
2022-10-09T17:08:43.420Z,2.20
2022-10-09T17:11:11.766Z,4.00
2022-10-09T17:13:38.847Z,1.60
2022-10-09T17:16:07.529Z,2.60
2022-10-09T17:18:35.596Z,3.90
2022-10-09T17:21:07.050Z,2.00
2022-10-09T17:23:34.195Z,4.10
2022-10-09T17:26:08.034Z,3.10
2022-10-09T17:28:35.401Z,2.00
2022-10-09T17:31:07.215Z,4.80
2022-10-09T17:33:34.740Z,2.10
2022-10-09T17:36:02.334Z,4.70
2022-10-09T17:38:29.390Z,3.50
2022-10-09T17:40:56.555Z,4.60
2022-10-09T17:45:11.618Z,3.30
2022-10-09T17:47:39.175Z,2.40
2022-10-09T17:50:06.995Z,3.10
2022-10-09T17:52:33.992Z,3.40
2022-10-09T17:55:01.133Z,3.00
2022-10-09T17:57:28.084Z,1.80
2022-10-09T17:59:55.055Z,3.00
2022-10-09T18:02:22.090Z,2.40
2022-10-09T18:04:49.226Z,5.40
2022-10-09T18:07:19.694Z,3.00
2022-10-09T18:09:46.552Z,4.80
2022-10-09T18:12:13.446Z,3.30
2022-10-09T18:14:40.506Z,1.50
2022-10-09T18:17:07.730Z,3.20
2022-10-09T18:19:34.883Z,4.60
2022-10-09T18:22:02.440Z,2.90
2022-10-09T18:24:29.496Z,3.30
2022-10-09T18:26:56.490Z,5.10
2022-10-09T18:29:23.486Z,2.60
2022-10-09T18:31:55.647Z,3.60
2022-10-09T18:34:23.343Z,2.20
2022-10-09T18:36:52.100Z,3.20
2022-10-09T18:39:19.425Z,3.30
2022-10-09T18:41:46.507Z,2.30
2022-10-09T18:44:17.863Z,2.10
2022-10-09T18:46:54.628Z,4.00
2022-10-09T18:49:24.698Z,3.80
2022-10-09T18:51:53.365Z,2.90
2022-10-09T18:54:21.980Z,3.90
2022-10-09T18:56:48.958Z,7.20
2022-10-09T18:59:17.538Z,3.00
2022-10-09T19:01:44.535Z,3.20
2022-10-09T19:04:11.945Z,4.20
2022-10-09T19:06:39.191Z,2.90
2022-10-09T19:09:06.245Z,6.70
2022-10-09T19:11:34.093Z,5.10
2022-10-09T19:14:01.276Z,3.20
2022-10-09T19:16:28.905Z,2.70
2022-10-09T19:18:56.726Z,3.50
2022-10-09T19:21:23.830Z,2.80
2022-10-09T19:23:51.589Z,3.40
2022-10-09T19:26:18.765Z,4.30
2022-10-09T19:28:46.054Z,4.40
2022-10-09T19:31:13.904Z,6.60
2022-10-09T19:33:41.282Z,4.10
2022-10-09T19:36:10.641Z,2.50
2022-10-09T19:38:37.515Z,3.00
2022-10-09T19:41:09.420Z,6.60
2022-10-09T19:43:36.676Z,3.40
2022-10-09T19:46:05.533Z,2.20
2022-10-09T19:48:32.921Z,5.20
2022-10-09T19:50:59.969Z,2.50
2022-10-09T19:53:27.128Z,2.90
2022-10-09T19:55:54.162Z,3.40
2022-10-09T19:58:21.155Z,5.20
2022-10-09T20:00:49.185Z,1.90
2022-10-09T20:03:16.395Z,4.70
2022-10-09T20:05:43.477Z,1.50
2022-10-09T20:08:10.534Z,1.20
2022-10-09T20:10:38.103Z,1.70
2022-10-09T20:13:05.545Z,2.70
2022-10-09T20:15:32.546Z,3.40
2022-10-09T20:17:59.536Z,4.30
2022-10-09T20:20:27.401Z,5.60
2022-10-09T20:22:54.561Z,5.40
2022-10-09T20:25:21.797Z,2.40
2022-10-09T20:27:48.855Z,1.40
2022-10-09T20:30:15.792Z,1.30
2022-10-09T20:32:42.841Z,3.30
2022-10-09T20:35:10.327Z,1.90
2022-10-09T20:37:37.452Z,3.30
2022-10-09T20:40:04.926Z,1.30
2022-10-09T20:42:32.262Z,1.90
2022-10-09T20:44:59.312Z,2.00
2022-10-09T20:47:26.254Z,1.90
2022-10-09T20:49:53.170Z,1.50
2022-10-09T20:52:20.180Z,2.40
2022-10-09T20:54:47.082Z,3.10
2022-10-09T20:57:14.085Z,1.50
2022-10-09T20:59:41.280Z,2.70
2022-10-09T21:02:08.540Z,6.80
2022-10-09T21:04:35.617Z,3.10
2022-10-09T21:07:02.551Z,1.60
2022-10-09T21:09:33.065Z,3.80
2022-10-09T21:12:00.612Z,2.00
2022-10-09T21:14:27.611Z,2.50
2022-10-09T21:16:54.513Z,2.30
2022-10-09T21:19:21.463Z,2.00
2022-10-09T21:21:51.001Z,3.70
2022-10-09T21:24:18.309Z,2.20
2022-10-09T21:26:47.608Z,2.00
2022-10-09T21:29:14.626Z,2.20
2022-10-09T21:31:42.011Z,1.40
2022-10-09T21:34:09.118Z,2.20
2022-10-09T21:37:08.863Z,5.10
2022-10-09T21:39:33.711Z,2.20
2022-10-09T21:42:00.826Z,1.20
2022-10-09T21:44:27.969Z,2.00
2022-10-09T21:46:55.042Z,3.00
2022-10-09T21:49:23.517Z,1.80
2022-10-09T21:51:50.614Z,1.50
2022-10-09T21:54:17.595Z,2.80
2022-10-09T21:56:44.619Z,1.40
2022-10-09T21:59:11.702Z,2.00
2022-10-09T22:01:38.700Z,3.80
2022-10-09T22:04:05.810Z,1.70
2022-10-09T22:06:32.824Z,3.20
2022-10-09T22:09:00.192Z,2.10
2022-10-09T22:11:27.233Z,1.10
2022-10-09T22:13:55.805Z,2.20
2022-10-09T22:16:22.855Z,1.60
2022-10-09T22:18:49.711Z,3.30
2022-10-09T22:21:16.959Z,4.00
2022-10-09T22:23:44.238Z,3.40
2022-10-09T22:26:13.654Z,1.70
2022-10-09T22:28:40.834Z,2.20
2022-10-09T22:31:14.045Z,3.60
2022-10-09T22:33:41.197Z,1.00
2022-10-09T22:36:10.782Z,2.70
2022-10-09T22:38:37.953Z,2.20
2022-10-09T22:41:05.717Z,0.80
2022-10-09T22:43:32.677Z,4.70
2022-10-09T22:45:59.718Z,1.00
2022-10-09T22:48:26.686Z,4.40
2022-10-09T22:50:53.705Z,2.60
2022-10-09T22:53:20.799Z,1.20
2022-10-09T22:55:47.830Z,3.10
2022-10-09T22:58:14.858Z,0.80
2022-10-09T23:00:41.837Z,1.60
2022-10-09T23:03:08.840Z,1.80
2022-10-09T23:05:35.846Z,2.00
2022-10-09T23:08:02.750Z,2.40
2022-10-09T23:10:29.683Z,2.70
2022-10-09T23:12:56.653Z,0.90
2022-10-09T23:15:23.661Z,3.10
2022-10-09T23:17:50.606Z,1.90
2022-10-09T23:20:17.561Z,3.40
2022-10-09T23:22:44.542Z,2.40
2022-10-09T23:25:11.544Z,2.60
2022-10-09T23:27:38.593Z,5.50
2022-10-09T23:30:06.380Z,1.60
2022-10-09T23:32:33.398Z,2.90
2022-10-09T23:35:00.489Z,1.10
2022-10-09T23:37:27.416Z,1.80
2022-10-09T23:39:54.260Z,2.40
2022-10-09T23:42:21.401Z,1.80
2022-10-09T23:44:48.331Z,2.30
2022-10-09T23:47:15.259Z,5.10
2022-10-09T23:49:42.218Z,2.20
2022-10-09T23:52:09.136Z,3.30
2022-10-09T23:54:36.066Z,3.50
2022-10-09T23:57:03.158Z,1.30
2022-10-09T23:59:30.146Z,3.30
